sensor_id;sensor_type;location;lat;lon;timestamp;pressure;altitude;pressure_sealevel;temperature;humidity
13869;BME280;7004;48.206;16.402;2023-06-24T00:01:31;100059.56;;;20.26;66.82
13869;BME280;7004;48.206;16.402;2023-06-24T00:03:57;100055.44;;;20.04;67.14
13869;BME280;7004;48.206;16.402;2023-06-24T00:06:24;100067.34;;;20.02;67.16
13869;BME280;7004;48.206;16.402;2023-06-24T00:08:52;100067.63;;;20.26;66.71
13869;BME280;7004;48.206;16.402;2023-06-24T00:11:18;100063.47;;;20.32;68.30
13869;BME280;7004;48.206;16.402;2023-06-24T00:13:44;100055.28;;;19.88;67.86
13869;BME280;7004;48.206;16.402;2023-06-24T00:16:11;100044.34;;;19.72;67.83
13869;BME280;7004;48.206;16.402;2023-06-24T00:18:37;100061.16;;;19.92;67.70
13869;BME280;7004;48.206;16.402;2023-06-24T00:21:07;100061.78;;;19.85;68.40
13869;BME280;7004;48.206;16.402;2023-06-24T00:23:33;100055.63;;;19.75;69.17
13869;BME280;7004;48.206;16.402;2023-06-24T00:26:03;100068.59;;;19.80;68.03
13869;BME280;7004;48.206;16.402;2023-06-24T00:28:29;100068.47;;;20.45;66.74
13869;BME280;7004;48.206;16.402;2023-06-24T00:30:55;100078.81;;;20.22;69.34
13869;BME280;7004;48.206;16.402;2023-06-24T00:33:21;100074.28;;;20.22;66.93
13869;BME280;7004;48.206;16.402;2023-06-24T00:35:48;100075.41;;;20.20;67.05
13869;BME280;7004;48.206;16.402;2023-06-24T00:38:14;100075.41;;;19.92;68.46
13869;BME280;7004;48.206;16.402;2023-06-24T00:40:41;100074.00;;;19.98;68.02
13869;BME280;7004;48.206;16.402;2023-06-24T00:43:08;100071.19;;;19.90;68.45
13869;BME280;7004;48.206;16.402;2023-06-24T00:45:35;100062.31;;;20.17;67.28
13869;BME280;7004;48.206;16.402;2023-06-24T00:48:01;100061.38;;;20.26;68.49
13869;BME280;7004;48.206;16.402;2023-06-24T00:50:29;100064.25;;;20.24;68.55
13869;BME280;7004;48.206;16.402;2023-06-24T00:52:55;100063.94;;;20.27;67.59
13869;BME280;7004;48.206;16.402;2023-06-24T00:55:22;100064.66;;;20.02;68.73
13869;BME280;7004;48.206;16.402;2023-06-24T00:57:51;100062.47;;;20.33;67.88
13869;BME280;7004;48.206;16.402;2023-06-24T01:00:20;100051.09;;;20.03;68.45
13869;BME280;7004;48.206;16.402;2023-06-24T01:02:55;100056.19;;;20.24;68.32
13869;BME280;7004;48.206;16.402;2023-06-24T01:05:24;100066.09;;;20.24;68.15
13869;BME280;7004;48.206;16.402;2023-06-24T01:07:51;100065.66;;;20.01;68.64
13869;BME280;7004;48.206;16.402;2023-06-24T01:10:22;100068.50;;;20.17;69.23
13869;BME280;7004;48.206;16.402;2023-06-24T01:12:49;100070.44;;;19.97;70.57
13869;BME280;7004;48.206;16.402;2023-06-24T01:15:17;100076.44;;;19.91;70.05
13869;BME280;7004;48.206;16.402;2023-06-24T01:30:00;100070.16;;;19.63;71.58
13869;BME280;7004;48.206;16.402;2023-06-24T01:33:15;100076.47;;;19.81;70.60
13869;BME280;7004;48.206;16.402;2023-06-24T01:35:45;100073.94;;;19.80;71.13
13869;BME280;7004;48.206;16.402;2023-06-24T01:38:24;100071.41;;;19.78;70.69
13869;BME280;7004;48.206;16.402;2023-06-24T01:40:53;100075.63;;;19.81;71.42
13869;BME280;7004;48.206;16.402;2023-06-24T01:43:22;100077.56;;;19.89;71.35
13869;BME280;7004;48.206;16.402;2023-06-24T01:45:52;100084.72;;;19.70;71.90
13869;BME280;7004;48.206;16.402;2023-06-24T01:48:27;100093.47;;;19.72;72.16
13869;BME280;7004;48.206;16.402;2023-06-24T01:51:16;100085.81;;;20.05;72.62
13869;BME280;7004;48.206;16.402;2023-06-24T01:53:52;100091.63;;;20.28;70.64
13869;BME280;7004;48.206;16.402;2023-06-24T01:56:21;100094.25;;;20.10;70.61
13869;BME280;7004;48.206;16.402;2023-06-24T01:58:51;100095.09;;;19.83;71.67
13869;BME280;7004;48.206;16.402;2023-06-24T02:01:18;100089.31;;;19.88;72.07
13869;BME280;7004;48.206;16.402;2023-06-24T02:03:48;100088.19;;;19.80;73.88
13869;BME280;7004;48.206;16.402;2023-06-24T02:06:16;100085.72;;;19.97;72.69
13869;BME280;7004;48.206;16.402;2023-06-24T02:08:44;100077.84;;;19.95;73.68
13869;BME280;7004;48.206;16.402;2023-06-24T02:11:13;100085.59;;;19.51;73.32
13869;BME280;7004;48.206;16.402;2023-06-24T02:13:43;100076.53;;;19.72;73.04
13869;BME280;7004;48.206;16.402;2023-06-24T02:16:10;100069.72;;;19.77;72.83
13869;BME280;7004;48.206;16.402;2023-06-24T02:18:39;100067.75;;;19.79;73.48
13869;BME280;7004;48.206;16.402;2023-06-24T02:21:08;100061.38;;;20.08;73.11
13869;BME280;7004;48.206;16.402;2023-06-24T02:23:39;100066.38;;;19.56;74.02
13869;BME280;7004;48.206;16.402;2023-06-24T02:26:06;100060.38;;;20.09;72.54
13869;BME280;7004;48.206;16.402;2023-06-24T02:28:33;100059.88;;;19.68;74.93
13869;BME280;7004;48.206;16.402;2023-06-24T02:31:01;100070.44;;;19.97;73.18
13869;BME280;7004;48.206;16.402;2023-06-24T02:33:27;100062.22;;;19.81;73.67
13869;BME280;7004;48.206;16.402;2023-06-24T02:35:53;100065.75;;;19.81;74.19
13869;BME280;7004;48.206;16.402;2023-06-24T02:38:20;100064.16;;;19.51;75.39
13869;BME280;7004;48.206;16.402;2023-06-24T02:40:46;100070.59;;;20.23;73.15
13869;BME280;7004;48.206;16.402;2023-06-24T02:43:13;100066.66;;;19.72;75.58
13869;BME280;7004;48.206;16.402;2023-06-24T02:45:40;100073.56;;;19.65;75.15
13869;BME280;7004;48.206;16.402;2023-06-24T02:48:08;100075.22;;;19.76;74.31
13869;BME280;7004;48.206;16.402;2023-06-24T02:50:37;100078.50;;;19.70;75.60
13869;BME280;7004;48.206;16.402;2023-06-24T02:53:07;100072.53;;;19.66;75.33
13869;BME280;7004;48.206;16.402;2023-06-24T02:55:33;100098.38;;;19.20;77.54
13869;BME280;7004;48.206;16.402;2023-06-24T02:58:02;100083.44;;;20.02;73.97
13869;BME280;7004;48.206;16.402;2023-06-24T03:00:29;100077.69;;;19.50;77.60
13869;BME280;7004;48.206;16.402;2023-06-24T03:03:01;100092.44;;;19.16;77.60
13869;BME280;7004;48.206;16.402;2023-06-24T03:05:28;100099.69;;;18.96;79.13
13869;BME280;7004;48.206;16.402;2023-06-24T03:07:57;100091.63;;;19.73;76.25
13869;BME280;7004;48.206;16.402;2023-06-24T03:10:24;100097.91;;;19.25;78.00
13869;BME280;7004;48.206;16.402;2023-06-24T03:12:51;100089.25;;;19.50;77.34
13869;BME280;7004;48.206;16.402;2023-06-24T03:15:18;100094.44;;;18.85;80.00
13869;BME280;7004;48.206;16.402;2023-06-24T03:17:45;100095.56;;;19.02;79.94
13869;BME280;7004;48.206;16.402;2023-06-24T03:20:12;100098.38;;;19.10;79.11
13869;BME280;7004;48.206;16.402;2023-06-24T03:22:39;100095.16;;;19.07;79.25
13869;BME280;7004;48.206;16.402;2023-06-24T03:25:05;100108.25;;;19.10;80.17
13869;BME280;7004;48.206;16.402;2023-06-24T03:27:31;100106.69;;;19.17;79.88
13869;BME280;7004;48.206;16.402;2023-06-24T03:29:59;100114.47;;;19.10;79.50
13869;BME280;7004;48.206;16.402;2023-06-24T03:32:25;100127.50;;;19.52;78.45
13869;BME280;7004;48.206;16.402;2023-06-24T03:34:52;100117.09;;;19.30;79.97
13869;BME280;7004;48.206;16.402;2023-06-24T03:37:18;100129.81;;;18.98;81.01
13869;BME280;7004;48.206;16.402;2023-06-24T03:39:43;100136.19;;;19.07;80.91
13869;BME280;7004;48.206;16.402;2023-06-24T03:42:09;100124.94;;;19.51;79.11
13869;BME280;7004;48.206;16.402;2023-06-24T03:44:35;100119.25;;;19.16;80.82
13869;BME280;7004;48.206;16.402;2023-06-24T03:47:02;100110.34;;;19.35;81.31
13869;BME280;7004;48.206;16.402;2023-06-24T03:49:28;100107.66;;;19.35;80.90
13869;BME280;7004;48.206;16.402;2023-06-24T03:51:54;100108.41;;;18.98;81.85
13869;BME280;7004;48.206;16.402;2023-06-24T03:54:20;100103.03;;;19.08;81.96
13869;BME280;7004;48.206;16.402;2023-06-24T03:56:46;100100.75;;;19.23;80.94
13869;BME280;7004;48.206;16.402;2023-06-24T03:59:12;100103.84;;;19.28;80.79
13869;BME280;7004;48.206;16.402;2023-06-24T04:01:38;100103.56;;;19.41;80.33
13869;BME280;7004;48.206;16.402;2023-06-24T04:04:04;100119.81;;;18.91;82.79
13869;BME280;7004;48.206;16.402;2023-06-24T04:06:30;100106.97;;;18.65;83.67
13869;BME280;7004;48.206;16.402;2023-06-24T04:08:56;100123.63;;;18.88;83.95
13869;BME280;7004;48.206;16.402;2023-06-24T04:11:22;100113.47;;;19.11;82.43
13869;BME280;7004;48.206;16.402;2023-06-24T04:13:49;100116.97;;;18.73;84.68
13869;BME280;7004;48.206;16.402;2023-06-24T04:16:15;100125.59;;;19.25;83.21
13869;BME280;7004;48.206;16.402;2023-06-24T04:18:41;100130.25;;;18.84;85.02
13869;BME280;7004;48.206;16.402;2023-06-24T04:21:07;100131.97;;;19.05;83.37
13869;BME280;7004;48.206;16.402;2023-06-24T04:23:34;100124.91;;;18.84;85.38
13869;BME280;7004;48.206;16.402;2023-06-24T04:26:00;100119.13;;;18.89;84.32
13869;BME280;7004;48.206;16.402;2023-06-24T04:28:26;100127.66;;;18.73;86.28
13869;BME280;7004;48.206;16.402;2023-06-24T04:30:52;100119.91;;;18.70;85.09
13869;BME280;7004;48.206;16.402;2023-06-24T04:33:18;100130.56;;;18.81;84.39
13869;BME280;7004;48.206;16.402;2023-06-24T04:35:44;100125.44;;;18.78;84.21
13869;BME280;7004;48.206;16.402;2023-06-24T04:38:10;100136.72;;;19.20;83.21
13869;BME280;7004;48.206;16.402;2023-06-24T04:40:37;100135.47;;;19.05;82.92
13869;BME280;7004;48.206;16.402;2023-06-24T04:43:03;100136.47;;;18.85;83.88
13869;BME280;7004;48.206;16.402;2023-06-24T04:45:29;100128.53;;;18.73;83.75
13869;BME280;7004;48.206;16.402;2023-06-24T04:47:55;100148.59;;;19.08;82.65
13869;BME280;7004;48.206;16.402;2023-06-24T04:50:21;100156.91;;;19.15;83.09
13869;BME280;7004;48.206;16.402;2023-06-24T04:52:53;100139.78;;;19.45;80.99
13869;BME280;7004;48.206;16.402;2023-06-24T04:55:22;100148.84;;;19.25;82.84
13869;BME280;7004;48.206;16.402;2023-06-24T04:57:48;100141.66;;;18.96;83.52
13869;BME280;7004;48.206;16.402;2023-06-24T05:00:14;100144.91;;;18.90;83.93
13869;BME280;7004;48.206;16.402;2023-06-24T05:02:42;100152.81;;;19.01;83.91
13869;BME280;7004;48.206;16.402;2023-06-24T05:05:08;100156.75;;;18.87;84.64
13869;BME280;7004;48.206;16.402;2023-06-24T05:07:35;100152.66;;;19.32;82.65
13869;BME280;7004;48.206;16.402;2023-06-24T05:10:01;100160.16;;;18.39;85.25
13869;BME280;7004;48.206;16.402;2023-06-24T05:12:27;100157.47;;;18.89;83.07
13869;BME280;7004;48.206;16.402;2023-06-24T05:14:53;100172.84;;;18.87;83.08
13869;BME280;7004;48.206;16.402;2023-06-24T05:17:20;100166.75;;;18.75;83.43
13869;BME280;7004;48.206;16.402;2023-06-24T05:19:47;100171.69;;;18.80;83.01
13869;BME280;7004;48.206;16.402;2023-06-24T05:22:13;100170.28;;;18.76;83.66
13869;BME280;7004;48.206;16.402;2023-06-24T05:24:39;100191.59;;;18.97;82.91
13869;BME280;7004;48.206;16.402;2023-06-24T05:27:07;100182.41;;;19.19;82.88
13869;BME280;7004;48.206;16.402;2023-06-24T05:29:35;100189.16;;;19.42;80.94
13869;BME280;7004;48.206;16.402;2023-06-24T05:32:02;100199.50;;;19.28;81.33
13869;BME280;7004;48.206;16.402;2023-06-24T05:34:30;100201.59;;;19.14;81.87
13869;BME280;7004;48.206;16.402;2023-06-24T05:36:56;100200.34;;;18.89;83.79
13869;BME280;7004;48.206;16.402;2023-06-24T05:39:22;100212.91;;;19.28;82.03
13869;BME280;7004;48.206;16.402;2023-06-24T05:41:48;100212.75;;;19.00;83.21
13869;BME280;7004;48.206;16.402;2023-06-24T05:44:14;100207.88;;;19.91;79.10
13869;BME280;7004;48.206;16.402;2023-06-24T05:46:41;100212.31;;;19.43;81.30
13869;BME280;7004;48.206;16.402;2023-06-24T05:49:07;100216.28;;;19.20;81.95
13869;BME280;7004;48.206;16.402;2023-06-24T05:51:33;100216.47;;;18.68;84.02
13869;BME280;7004;48.206;16.402;2023-06-24T05:53:59;100220.22;;;19.26;82.46
13869;BME280;7004;48.206;16.402;2023-06-24T05:56:25;100216.31;;;18.60;85.43
13869;BME280;7004;48.206;16.402;2023-06-24T05:58:51;100225.56;;;19.06;83.39
13869;BME280;7004;48.206;16.402;2023-06-24T06:01:18;100237.84;;;19.18;83.60
13869;BME280;7004;48.206;16.402;2023-06-24T06:03:44;100225.16;;;19.50;82.29
13869;BME280;7004;48.206;16.402;2023-06-24T06:06:10;100237.28;;;19.83;82.64
13869;BME280;7004;48.206;16.402;2023-06-24T06:08:36;100240.06;;;19.91;81.48
13869;BME280;7004;48.206;16.402;2023-06-24T06:11:02;100245.47;;;19.23;83.68
13869;BME280;7004;48.206;16.402;2023-06-24T06:13:29;100245.16;;;18.87;85.84
13869;BME280;7004;48.206;16.402;2023-06-24T06:15:57;100247.44;;;19.02;84.87
13869;BME280;7004;48.206;16.402;2023-06-24T06:18:23;100253.25;;;19.46;83.83
13869;BME280;7004;48.206;16.402;2023-06-24T06:20:49;100261.50;;;18.84;85.39
13869;BME280;7004;48.206;16.402;2023-06-24T06:23:16;100265.19;;;18.93;84.76
13869;BME280;7004;48.206;16.402;2023-06-24T06:25:43;100268.81;;;18.82;84.53
13869;BME280;7004;48.206;16.402;2023-06-24T06:28:09;100268.59;;;19.14;84.24
13869;BME280;7004;48.206;16.402;2023-06-24T06:30:35;100277.56;;;18.53;86.78
13869;BME280;7004;48.206;16.402;2023-06-24T06:33:02;100275.34;;;18.59;86.73
13869;BME280;7004;48.206;16.402;2023-06-24T06:35:28;100267.91;;;18.72;86.25
13869;BME280;7004;48.206;16.402;2023-06-24T06:37:56;100263.94;;;18.97;85.74
13869;BME280;7004;48.206;16.402;2023-06-24T06:40:23;100267.59;;;19.06;83.95
13869;BME280;7004;48.206;16.402;2023-06-24T06:42:49;100271.28;;;19.05;83.92
13869;BME280;7004;48.206;16.402;2023-06-24T06:45:16;100267.22;;;19.20;83.91
13869;BME280;7004;48.206;16.402;2023-06-24T06:47:42;100273.00;;;18.44;86.38
13869;BME280;7004;48.206;16.402;2023-06-24T06:50:08;100269.75;;;18.71;85.10
13869;BME280;7004;48.206;16.402;2023-06-24T06:52:34;100271.78;;;18.79;84.18
13869;BME280;7004;48.206;16.402;2023-06-24T06:55:00;100265.19;;;19.03;83.68
13869;BME280;7004;48.206;16.402;2023-06-24T06:57:26;100268.28;;;18.98;82.72
13869;BME280;7004;48.206;16.402;2023-06-24T06:59:52;100268.69;;;18.93;82.30
13869;BME280;7004;48.206;16.402;2023-06-24T07:02:18;100279.72;;;19.00;82.33
13869;BME280;7004;48.206;16.402;2023-06-24T07:04:45;100271.72;;;18.69;83.19
13869;BME280;7004;48.206;16.402;2023-06-24T07:07:13;100272.53;;;19.01;81.79
13869;BME280;7004;48.206;16.402;2023-06-24T07:09:39;100280.88;;;19.07;80.62
13869;BME280;7004;48.206;16.402;2023-06-24T07:12:07;100283.03;;;19.33;80.52
13869;BME280;7004;48.206;16.402;2023-06-24T07:14:33;100280.19;;;18.74;81.10
13869;BME280;7004;48.206;16.402;2023-06-24T07:17:00;100280.56;;;19.01;79.61
13869;BME280;7004;48.206;16.402;2023-06-24T07:19:26;100279.56;;;18.61;81.47
13869;BME280;7004;48.206;16.402;2023-06-24T07:21:52;100283.94;;;19.03;80.49
13869;BME280;7004;48.206;16.402;2023-06-24T07:24:18;100289.25;;;19.82;79.27
13869;BME280;7004;48.206;16.402;2023-06-24T07:26:44;100284.81;;;19.32;78.52
13869;BME280;7004;48.206;16.402;2023-06-24T07:29:10;100291.94;;;19.82;76.64
13869;BME280;7004;48.206;16.402;2023-06-24T07:31:37;100297.81;;;19.66;76.73
13869;BME280;7004;48.206;16.402;2023-06-24T07:34:04;100291.91;;;19.43;77.71
13869;BME280;7004;48.206;16.402;2023-06-24T07:36:31;100296.56;;;19.41;78.94
13869;BME280;7004;48.206;16.402;2023-06-24T07:38:57;100289.50;;;19.59;78.44
13869;BME280;7004;48.206;16.402;2023-06-24T07:41:24;100297.41;;;19.71;78.80
13869;BME280;7004;48.206;16.402;2023-06-24T07:43:50;100291.88;;;19.24;79.56
13869;BME280;7004;48.206;16.402;2023-06-24T07:46:17;100296.66;;;19.30;80.23
13869;BME280;7004;48.206;16.402;2023-06-24T07:48:43;100305.00;;;19.36;79.79
13869;BME280;7004;48.206;16.402;2023-06-24T07:51:09;100290.66;;;19.67;78.93
13869;BME280;7004;48.206;16.402;2023-06-24T07:53:36;100291.88;;;20.11;77.48
13869;BME280;7004;48.206;16.402;2023-06-24T07:56:02;100311.97;;;19.78;76.01
13869;BME280;7004;48.206;16.402;2023-06-24T07:58:28;100315.03;;;19.63;77.15
13869;BME280;7004;48.206;16.402;2023-06-24T08:00:54;100304.34;;;19.83;76.57
13869;BME280;7004;48.206;16.402;2023-06-24T08:03:20;100316.19;;;19.71;75.91
13869;BME280;7004;48.206;16.402;2023-06-24T08:05:47;100319.72;;;19.61;76.99
13869;BME280;7004;48.206;16.402;2023-06-24T08:08:15;100318.75;;;19.72;76.71
13869;BME280;7004;48.206;16.402;2023-06-24T08:10:41;100319.13;;;19.87;76.13
13869;BME280;7004;48.206;16.402;2023-06-24T08:13:07;100324.91;;;19.43;77.45
13869;BME280;7004;48.206;16.402;2023-06-24T08:15:33;100328.59;;;19.52;77.21
13869;BME280;7004;48.206;16.402;2023-06-24T08:17:59;100332.00;;;19.83;75.59
13869;BME280;7004;48.206;16.402;2023-06-24T08:20:26;100329.81;;;19.19;78.39
13869;BME280;7004;48.206;16.402;2023-06-24T08:22:52;100337.09;;;18.97;79.92
13869;BME280;7004;48.206;16.402;2023-06-24T08:25:18;100344.28;;;18.97;79.92
13869;BME280;7004;48.206;16.402;2023-06-24T08:27:45;100343.06;;;19.11;79.67
13869;BME280;7004;48.206;16.402;2023-06-24T08:30:16;100338.44;;;19.23;78.57
13869;BME280;7004;48.206;16.402;2023-06-24T08:32:43;100352.56;;;19.63;77.61
13869;BME280;7004;48.206;16.402;2023-06-24T08:35:09;100347.75;;;19.28;78.34
13869;BME280;7004;48.206;16.402;2023-06-24T08:37:39;100344.81;;;19.51;78.75
13869;BME280;7004;48.206;16.402;2023-06-24T08:40:06;100346.63;;;19.50;78.33
13869;BME280;7004;48.206;16.402;2023-06-24T08:42:32;100346.88;;;19.18;78.51
13869;BME280;7004;48.206;16.402;2023-06-24T08:44:58;100347.78;;;19.48;77.23
13869;BME280;7004;48.206;16.402;2023-06-24T08:47:25;100349.13;;;19.13;79.78
13869;BME280;7004;48.206;16.402;2023-06-24T08:50:00;100354.28;;;18.95;80.62
13869;BME280;7004;48.206;16.402;2023-06-24T08:52:32;100341.72;;;19.46;79.16
13869;BME280;7004;48.206;16.402;2023-06-24T08:55:01;100351.22;;;19.69;77.93
13869;BME280;7004;48.206;16.402;2023-06-24T08:57:29;100346.47;;;19.32;78.64
13869;BME280;7004;48.206;16.402;2023-06-24T08:59:55;100357.84;;;19.84;78.40
13869;BME280;7004;48.206;16.402;2023-06-24T09:02:21;100358.06;;;19.33;79.38
13869;BME280;7004;48.206;16.402;2023-06-24T09:04:47;100355.16;;;19.05;80.43
13869;BME280;7004;48.206;16.402;2023-06-24T09:07:13;100366.25;;;19.51;78.35
13869;BME280;7004;48.206;16.402;2023-06-24T09:09:49;100366.19;;;19.21;81.04
13869;BME280;7004;48.206;16.402;2023-06-24T09:12:15;100369.13;;;19.69;78.76
13869;BME280;7004;48.206;16.402;2023-06-24T09:14:41;100368.91;;;18.91;81.11
13869;BME280;7004;48.206;16.402;2023-06-24T09:17:13;100378.97;;;18.98;80.67
13869;BME280;7004;48.206;16.402;2023-06-24T09:19:40;100367.75;;;19.24;79.18
13869;BME280;7004;48.206;16.402;2023-06-24T09:22:09;100367.69;;;19.55;78.31
13869;BME280;7004;48.206;16.402;2023-06-24T09:24:47;100371.44;;;19.23;79.61
13869;BME280;7004;48.206;16.402;2023-06-24T09:27:15;100375.97;;;19.23;79.99
13869;BME280;7004;48.206;16.402;2023-06-24T09:29:42;100367.63;;;19.26;80.48
13869;BME280;7004;48.206;16.402;2023-06-24T09:32:09;100363.59;;;19.60;78.95
13869;BME280;7004;48.206;16.402;2023-06-24T09:34:36;100368.28;;;19.68;78.65
13869;BME280;7004;48.206;16.402;2023-06-24T09:37:02;100361.47;;;19.45;79.76
13869;BME280;7004;48.206;16.402;2023-06-24T09:39:39;100370.78;;;19.60;80.35
13869;BME280;7004;48.206;16.402;2023-06-24T09:42:06;100374.50;;;19.69;79.94
13869;BME280;7004;48.206;16.402;2023-06-24T09:44:35;100368.78;;;19.42;81.87
13869;BME280;7004;48.206;16.402;2023-06-24T09:47:01;100373.06;;;19.64;80.15
13869;BME280;7004;48.206;16.402;2023-06-24T09:49:28;100378.25;;;19.47;81.34
13869;BME280;7004;48.206;16.402;2023-06-24T09:51:59;100367.69;;;19.55;80.67
13869;BME280;7004;48.206;16.402;2023-06-24T09:54:28;100368.44;;;19.67;81.12
13869;BME280;7004;48.206;16.402;2023-06-24T09:56:57;100378.91;;;19.79;79.67
13869;BME280;7004;48.206;16.402;2023-06-24T09:59:25;100377.41;;;19.46;81.31
13869;BME280;7004;48.206;16.402;2023-06-24T10:01:55;100363.84;;;19.48;80.57
13869;BME280;7004;48.206;16.402;2023-06-24T10:04:23;100369.31;;;19.27;82.83
13869;BME280;7004;48.206;16.402;2023-06-24T10:06:50;100365.25;;;19.32;82.30
13869;BME280;7004;48.206;16.402;2023-06-24T10:09:17;100365.94;;;19.34;82.25
13869;BME280;7004;48.206;16.402;2023-06-24T10:11:46;100373.97;;;19.15;82.77
13869;BME280;7004;48.206;16.402;2023-06-24T10:14:14;100364.28;;;19.33;82.06
13869;BME280;7004;48.206;16.402;2023-06-24T10:16:41;100362.22;;;19.76;81.30
13869;BME280;7004;48.206;16.402;2023-06-24T10:19:08;100359.19;;;19.40;81.65
13869;BME280;7004;48.206;16.402;2023-06-24T10:21:53;100357.72;;;19.16;81.64
13869;BME280;7004;48.206;16.402;2023-06-24T10:24:41;100353.16;;;19.57;80.43
13869;BME280;7004;48.206;16.402;2023-06-24T10:27:20;100352.59;;;20.12;78.07
13869;BME280;7004;48.206;16.402;2023-06-24T10:29:52;100356.53;;;19.59;79.48
13869;BME280;7004;48.206;16.402;2023-06-24T10:32:19;100365.47;;;19.99;79.24
13869;BME280;7004;48.206;16.402;2023-06-24T10:34:53;100363.50;;;19.12;81.92
13869;BME280;7004;48.206;16.402;2023-06-24T10:37:25;100363.91;;;19.67;80.34
13869;BME280;7004;48.206;16.402;2023-06-24T10:39:55;100360.50;;;19.65;78.91
13869;BME280;7004;48.206;16.402;2023-06-24T10:42:42;100360.81;;;20.11;77.69
13869;BME280;7004;48.206;16.402;2023-06-24T10:47:37;100350.06;;;20.01;78.59
13869;BME280;7004;48.206;16.402;2023-06-24T10:50:06;100352.63;;;19.93;78.34
13869;BME280;7004;48.206;16.402;2023-06-24T10:52:39;100350.38;;;19.88;77.54
13869;BME280;7004;48.206;16.402;2023-06-24T10:55:06;100353.31;;;19.95;77.13
13869;BME280;7004;48.206;16.402;2023-06-24T10:57:33;100356.28;;;20.01;76.83
13869;BME280;7004;48.206;16.402;2023-06-24T11:00:02;100350.31;;;20.17;76.53
13869;BME280;7004;48.206;16.402;2023-06-24T11:02:30;100354.00;;;20.16;77.14
13869;BME280;7004;48.206;16.402;2023-06-24T11:04:59;100353.19;;;19.96;77.23
13869;BME280;7004;48.206;16.402;2023-06-24T11:07:31;100354.03;;;20.06;77.63
13869;BME280;7004;48.206;16.402;2023-06-24T11:10:03;100349.38;;;19.79;77.94
13869;BME280;7004;48.206;16.402;2023-06-24T11:12:37;100359.66;;;19.84;77.94
13869;BME280;7004;48.206;16.402;2023-06-24T11:15:09;100353.84;;;20.27;76.98
13869;BME280;7004;48.206;16.402;2023-06-24T11:17:39;100346.66;;;20.18;76.52
13869;BME280;7004;48.206;16.402;2023-06-24T11:20:11;100348.59;;;19.48;78.23
13869;BME280;7004;48.206;16.402;2023-06-24T11:22:40;100341.72;;;19.94;78.50
13869;BME280;7004;48.206;16.402;2023-06-24T11:25:18;100339.50;;;19.80;77.65
13869;BME280;7004;48.206;16.402;2023-06-24T11:27:45;100338.31;;;19.63;78.49
13869;BME280;7004;48.206;16.402;2023-06-24T11:30:12;100336.25;;;19.76;78.96
13869;BME280;7004;48.206;16.402;2023-06-24T11:32:44;100335.81;;;19.61;78.76
13869;BME280;7004;48.206;16.402;2023-06-24T11:35:12;100334.75;;;20.30;77.47
13869;BME280;7004;48.206;16.402;2023-06-24T11:37:47;100338.25;;;19.74;78.82
13869;BME280;7004;48.206;16.402;2023-06-24T11:40:17;100337.63;;;20.00;77.77
13869;BME280;7004;48.206;16.402;2023-06-24T11:42:45;100336.22;;;20.05;77.17
13869;BME280;7004;48.206;16.402;2023-06-24T11:45:14;100337.38;;;20.60;75.46
13869;BME280;7004;48.206;16.402;2023-06-24T11:47:43;100336.81;;;19.70;78.38
13869;BME280;7004;48.206;16.402;2023-06-24T11:50:09;100333.84;;;19.83;78.84
13869;BME280;7004;48.206;16.402;2023-06-24T11:52:49;100336.25;;;19.96;78.11
13869;BME280;7004;48.206;16.402;2023-06-24T11:55:24;100334.25;;;19.78;78.59
13869;BME280;7004;48.206;16.402;2023-06-24T11:57:56;100330.59;;;19.89;77.48
13869;BME280;7004;48.206;16.402;2023-06-24T12:00:31;100334.13;;;19.70;78.57
13869;BME280;7004;48.206;16.402;2023-06-24T12:03:01;100326.09;;;19.70;78.56
13869;BME280;7004;48.206;16.402;2023-06-24T12:05:36;100333.00;;;19.73;79.58
13869;BME280;7004;48.206;16.402;2023-06-24T12:08:06;100327.19;;;19.87;78.71
13869;BME280;7004;48.206;16.402;2023-06-24T12:10:34;100332.59;;;19.77;78.58
13869;BME280;7004;48.206;16.402;2023-06-24T12:13:02;100327.66;;;19.82;78.82
13869;BME280;7004;48.206;16.402;2023-06-24T12:15:29;100328.59;;;19.81;78.75
13869;BME280;7004;48.206;16.402;2023-06-24T12:17:55;100332.44;;;19.89;78.55
13869;BME280;7004;48.206;16.402;2023-06-24T12:20:23;100326.84;;;20.29;77.12
13869;BME280;7004;48.206;16.402;2023-06-24T12:22:49;100329.03;;;19.96;78.94
13869;BME280;7004;48.206;16.402;2023-06-24T12:25:17;100341.97;;;20.20;78.39
13869;BME280;7004;48.206;16.402;2023-06-24T12:27:44;100335.78;;;20.20;77.35
13869;BME280;7004;48.206;16.402;2023-06-24T12:30:11;100335.78;;;20.20;76.79
13869;BME280;7004;48.206;16.402;2023-06-24T12:32:37;100341.84;;;20.32;76.62
13869;BME280;7004;48.206;16.402;2023-06-24T12:35:04;100346.69;;;19.70;77.75
13869;BME280;7004;48.206;16.402;2023-06-24T12:37:32;100344.88;;;19.80;78.17
13869;BME280;7004;48.206;16.402;2023-06-24T12:40:00;100346.69;;;19.70;77.56
13869;BME280;7004;48.206;16.402;2023-06-24T12:42:27;100343.28;;;19.97;77.09
13869;BME280;7004;48.206;16.402;2023-06-24T12:44:54;100347.63;;;20.17;78.20
13869;BME280;7004;48.206;16.402;2023-06-24T12:47:20;100339.47;;;20.19;77.14
13869;BME280;7004;48.206;16.402;2023-06-24T12:49:47;100348.34;;;20.29;75.38
13869;BME280;7004;48.206;16.402;2023-06-24T12:52:13;100365.72;;;20.15;77.76
13869;BME280;7004;48.206;16.402;2023-06-24T12:54:40;100349.91;;;20.02;77.09
13869;BME280;7004;48.206;16.402;2023-06-24T12:57:07;100350.38;;;19.98;76.73
13869;BME280;7004;48.206;16.402;2023-06-24T12:59:33;100342.47;;;20.53;75.76
13869;BME280;7004;48.206;16.402;2023-06-24T13:01:59;100349.31;;;20.28;76.04
13869;BME280;7004;48.206;16.402;2023-06-24T13:04:26;100344.16;;;20.64;74.90
13869;BME280;7004;48.206;16.402;2023-06-24T13:06:53;100352.41;;;20.33;74.77
13869;BME280;7004;48.206;16.402;2023-06-24T13:09:20;100353.72;;;20.00;76.06